Time;durP1;ratioP1;P1;durP2;ratioP2;P2;SDS_P1;SDS_P2;PMS_P1;PMS_P2;Temp;Humidity;BMP_temperature;BMP_pressure;BME280_temperature;BME280_humidity;BME280_pressure;Samples;Min_cycle;Max_cycle;Signal;HPM_P1;HPM_P2
2022/07/16 00:01:26;;;;;;;4.82;2.85;;;24.10;84.80;;;;;;5093570;28;20519;-78
2022/07/16 00:04:02;;;;;;;6.45;2.78;;;24.00;85.80;;;;;;5084671;28;20059;-78
2022/07/16 00:06:29;;;;;;;4.28;2.40;;;23.90;87.30;;;;;;5084051;28;20024;-76
2022/07/16 00:08:55;;;;;;;6.05;2.75;;;23.80;88.20;;;;;;5092399;28;20393;-76
2022/07/16 00:11:22;;;;;;;4.40;2.85;;;23.70;88.70;;;;;;5094577;28;20024;-76
2022/07/16 00:13:49;;;;;;;3.83;2.40;;;23.60;89.50;;;;;;5096878;28;20024;-76
2022/07/16 00:16:15;;;;;;;3.58;2.70;;;23.60;89.90;;;;;;5098655;28;20028;-76
2022/07/16 00:19:23;;;;;;;5.82;3.25;;;23.50;89.90;;;;;;5099067;28;20016;-77
2022/07/16 00:21:30;;;;;;;6.03;3.00;;;23.50;90.20;;;;;;5083036;28;20028;-76
2022/07/16 00:23:56;;;;;;;5.65;3.08;;;23.40;90.90;;;;;;5087010;28;20032;-76
2022/07/16 00:26:22;;;;;;;5.32;2.83;;;23.40;90.70;;;;;;5097799;28;20059;-76
2022/07/16 00:28:48;;;;;;;5.35;3.53;;;23.30;90.90;;;;;;5093330;28;20029;-76
2022/07/16 00:31:14;;;;;;;7.28;4.78;;;23.20;91.30;;;;;;5081411;28;20043;-76
2022/07/16 00:33:40;;;;;;;3.85;2.58;;;23.10;91.20;;;;;;5094745;28;20027;-76
2022/07/16 00:36:06;;;;;;;4.32;2.88;;;23.10;91.60;;;;;;5084970;28;20013;-76
2022/07/16 00:38:32;;;;;;;4.97;3.30;;;23.00;92.00;;;;;;5091537;28;20408;-76
2022/07/16 00:40:58;;;;;;;3.95;2.95;;;22.90;91.60;;;;;;5087947;28;20025;-76
2022/07/16 00:43:24;;;;;;;6.93;4.10;;;22.90;91.60;;;;;;5094836;28;20077;-76
2022/07/16 00:45:50;;;;;;;4.07;3.00;;;22.80;91.90;;;;;;5090261;28;20024;-76
2022/07/16 00:48:16;;;;;;;6.75;4.05;;;22.80;92.00;;;;;;5096737;28;20099;-76
2022/07/16 00:50:42;;;;;;;6.65;3.75;;;22.70;92.20;;;;;;5095213;28;20056;-76
2022/07/16 00:53:10;;;;;;;5.22;3.17;;;22.70;92.40;;;;;;5096637;28;20070;-76
2022/07/16 00:55:37;;;;;;;4.82;3.00;;;22.60;92.50;;;;;;5097263;28;20024;-76
2022/07/16 00:58:03;;;;;;;4.43;3.60;;;22.60;92.50;;;;;;5079914;28;20017;-76
2022/07/16 01:00:29;;;;;;;11.38;2.95;;;22.60;93.00;;;;;;5079666;28;20032;-76
2022/07/16 01:02:58;;;;;;;4.53;3.17;;;22.50;93.00;;;;;;5083026;28;20646;-76
2022/07/16 01:05:25;;;;;;;5.90;2.92;;;22.50;93.10;;;;;;5083170;28;20020;-76
2022/07/16 01:07:51;;;;;;;4.85;3.40;;;22.50;93.30;;;;;;5097854;28;20020;-76
2022/07/16 01:10:19;;;;;;;6.63;3.80;;;22.40;93.20;;;;;;5092434;28;20045;-76
2022/07/16 01:12:45;;;;;;;7.05;2.85;;;22.40;93.60;;;;;;5092129;28;20024;-76
2022/07/16 01:15:12;;;;;;;4.35;2.72;;;22.40;93.80;;;;;;5093703;28;20051;-76
2022/07/16 01:17:38;;;;;;;4.15;2.63;;;22.30;93.70;;;;;;5097976;28;20103;-76
2022/07/16 01:20:06;;;;;;;5.25;2.65;;;22.30;93.80;;;;;;5088104;28;20055;-76
2022/07/16 01:22:32;;;;;;;3.70;2.20;;;22.20;94.00;;;;;;5082238;28;20025;-76
2022/07/16 01:24:58;;;;;;;6.47;2.88;;;22.10;93.90;;;;;;5086016;28;20028;-76
2022/07/16 01:27:24;;;;;;;7.57;2.72;;;22.10;94.00;;;;;;5087424;28;20408;-77
2022/07/16 01:29:50;;;;;;;5.50;3.58;;;22.10;94.10;;;;;;5090034;28;20115;-76
2022/07/16 01:32:16;;;;;;;4.65;3.33;;;22.00;94.40;;;;;;5098706;28;20037;-76
2022/07/16 01:34:42;;;;;;;3.78;2.50;;;22.00;94.40;;;;;;5098618;28;20024;-76
2022/07/16 01:37:09;;;;;;;5.60;3.15;;;22.00;94.80;;;;;;5094307;28;20019;-76
2022/07/16 01:39:38;;;;;;;3.53;2.90;;;21.90;94.90;;;;;;5096625;28;20035;-76
2022/07/16 01:42:06;;;;;;;5.55;2.60;;;21.90;95.10;;;;;;5089972;28;20032;-76
2022/07/16 01:44:34;;;;;;;4.55;2.97;;;21.80;95.40;;;;;;5095292;28;20020;-76
2022/07/16 01:47:03;;;;;;;6.18;3.17;;;21.70;96.00;;;;;;5097099;28;20020;-76
2022/07/16 01:49:33;;;;;;;5.60;2.70;;;21.70;95.80;;;;;;5084428;28;20032;-76
2022/07/16 01:52:13;;;;;;;5.47;3.10;;;21.70;95.60;;;;;;5086048;28;20052;-76
2022/07/16 01:54:45;;;;;;;5.00;3.45;;;21.60;95.90;;;;;;5080461;28;20515;-76
2022/07/16 01:57:11;;;;;;;5.93;3.47;;;21.60;96.10;;;;;;5083206;28;20009;-76
2022/07/16 01:59:38;;;;;;;8.80;3.60;;;21.50;96.10;;;;;;5097355;28;20034;-76
2022/07/16 02:02:04;;;;;;;8.05;4.65;;;21.50;96.20;;;;;;5092747;28;20116;-76
2022/07/16 02:04:30;;;;;;;18.20;10.52;;;21.40;96.40;;;;;;5098149;28;20042;-76
2022/07/16 02:06:56;;;;;;;16.38;7.85;;;21.40;96.40;;;;;;5094629;28;20119;-76
2022/07/16 02:09:22;;;;;;;16.08;8.13;;;21.40;97.00;;;;;;5090981;28;20048;-76
2022/07/16 02:11:48;;;;;;;8.75;6.50;;;21.40;96.70;;;;;;5088331;28;20374;-76
2022/07/16 02:14:14;;;;;;;5.78;3.72;;;21.30;96.90;;;;;;5093913;28;20047;-76
2022/07/16 02:16:40;;;;;;;4.82;3.35;;;21.40;97.00;;;;;;5090766;28;20024;-76
2022/07/16 02:19:06;;;;;;;5.78;3.80;;;21.30;96.80;;;;;;5091078;28;20032;-77
2022/07/16 02:21:32;;;;;;;4.72;3.78;;;21.30;96.70;;;;;;5078956;28;20031;-76
2022/07/16 02:23:59;;;;;;;7.07;3.65;;;21.20;96.60;;;;;;5079703;28;20078;-76
2022/07/16 02:26:25;;;;;;;3.97;3.33;;;21.20;96.90;;;;;;5082050;28;20058;-76
2022/07/16 02:28:52;;;;;;;6.53;4.07;;;21.20;97.20;;;;;;5083942;28;20503;-76
2022/07/16 02:31:18;;;;;;;6.07;4.30;;;21.10;97.20;;;;;;5089546;28;20528;-76
2022/07/16 02:33:44;;;;;;;5.25;3.78;;;21.10;97.30;;;;;;5093668;28;20561;-76
2022/07/16 02:36:10;;;;;;;4.88;3.63;;;21.10;97.30;;;;;;5094777;28;20024;-77
2022/07/16 02:38:36;;;;;;;7.13;4.25;;;21.00;97.30;;;;;;5087777;28;20056;-77
2022/07/16 02:41:03;;;;;;;8.10;5.28;;;21.00;97.50;;;;;;5079914;28;20025;-77
2022/07/16 02:43:29;;;;;;;4.88;4.18;;;21.00;97.50;;;;;;5078517;28;20036;-77
2022/07/16 02:45:55;;;;;;;5.57;3.90;;;21.00;97.70;;;;;;5080842;28;20036;-77
2022/07/16 02:48:21;;;;;;;10.65;4.78;;;21.00;97.50;;;;;;5081553;28;20017;-76
2022/07/16 02:50:47;;;;;;;7.60;5.88;;;21.00;97.20;;;;;;5081913;28;20128;-76
2022/07/16 02:53:12;;;;;;;8.43;4.88;;;21.00;97.40;;;;;;5084662;28;20046;-77
2022/07/16 02:55:38;;;;;;;5.68;4.63;;;20.90;97.40;;;;;;5083650;28;20025;-77
2022/07/16 02:58:04;;;;;;;7.75;5.13;;;20.90;97.30;;;;;;5090451;28;20087;-76
2022/07/16 03:00:31;;;;;;;8.85;6.47;;;20.90;97.40;;;;;;5085142;28;20040;-76
2022/07/16 03:02:58;;;;;;;6.45;5.32;;;20.80;97.40;;;;;;5093365;28;20110;-76
2022/07/16 03:05:24;;;;;;;7.72;4.70;;;20.80;97.60;;;;;;5096736;28;20017;-77
2022/07/16 03:07:51;;;;;;;7.28;4.20;;;20.80;98.00;;;;;;5090194;28;20024;-77
2022/07/16 03:10:17;;;;;;;5.82;4.20;;;20.80;98.40;;;;;;5083386;28;20021;-77
2022/07/16 03:12:43;;;;;;;9.48;4.68;;;20.70;98.00;;;;;;5078291;28;20032;-77
2022/07/16 03:15:11;;;;;;;6.10;4.45;;;20.70;98.30;;;;;;5084868;28;20503;-76
2022/07/16 03:17:38;;;;;;;8.40;4.78;;;20.70;98.20;;;;;;5089384;28;20048;-77
2022/07/16 03:20:05;;;;;;;5.57;4.20;;;20.70;98.20;;;;;;5093209;28;20046;-77
2022/07/16 03:22:31;;;;;;;6.50;4.85;;;20.60;98.60;;;;;;5084921;28;20017;-76
2022/07/16 03:24:57;;;;;;;9.75;5.03;;;20.60;99.10;;;;;;5087960;28;20400;-76
2022/07/16 03:27:23;;;;;;;7.18;4.60;;;20.60;98.70;;;;;;5088957;28;20020;-76
2022/07/16 03:29:49;;;;;;;4.68;4.05;;;20.50;99.40;;;;;;5085306;28;20413;-76
2022/07/16 03:32:15;;;;;;;6.18;3.85;;;20.50;99.70;;;;;;5091298;28;20024;-77
2022/07/16 03:34:41;;;;;;;6.60;4.57;;;20.40;99.80;;;;;;5087985;28;20480;-76
2022/07/16 03:37:07;;;;;;;10.48;4.72;;;20.30;99.90;;;;;;5090393;28;20095;-76
2022/07/16 03:39:33;;;;;;;7.43;4.50;;;20.20;99.90;;;;;;5093655;28;20024;-77
2022/07/16 03:41:59;;;;;;;11.10;5.05;;;20.20;99.90;;;;;;5096154;28;20024;-76
2022/07/16 03:44:24;;;;;;;7.57;5.43;;;20.20;99.90;;;;;;5093568;28;20077;-77
2022/07/16 03:46:50;;;;;;;7.38;6.38;;;20.20;99.90;;;;;;5079443;28;20027;-76
2022/07/16 03:49:16;;;;;;;8.40;6.90;;;20.10;99.90;;;;;;5083075;28;20036;-77
2022/07/16 03:51:42;;;;;;;7.88;5.60;;;20.10;99.90;;;;;;5098799;28;20119;-77
2022/07/16 03:54:08;;;;;;;6.75;5.53;;;20.00;99.90;;;;;;5088436;28;20024;-76
2022/07/16 03:56:34;;;;;;;9.35;5.75;;;20.00;99.90;;;;;;5094750;28;20029;-77
2022/07/16 03:59:00;;;;;;;19.95;7.13;;;20.00;99.90;;;;;;5083950;28;20028;-77
2022/07/16 04:01:26;;;;;;;8.38;6.75;;;20.00;99.90;;;;;;5086426;28;20044;-77
2022/07/16 04:03:52;;;;;;;10.23;7.50;;;20.00;99.90;;;;;;5085874;28;20389;-77
2022/07/16 04:06:18;;;;;;;14.77;8.38;;;20.00;99.90;;;;;;5089422;28;20024;-77
2022/07/16 04:08:44;;;;;;;11.73;8.15;;;20.00;99.90;;;;;;5089588;28;20434;-77
2022/07/16 04:11:10;;;;;;;13.30;9.07;;;19.90;99.90;;;;;;5098157;28;20169;-77
2022/07/16 04:13:41;;;;;;;14.63;9.60;;;19.90;99.90;;;;;;5095792;28;20012;-76
2022/07/16 04:16:08;;;;;;;15.55;10.77;;;19.90;99.90;;;;;;5095220;28;20043;-76
2022/07/16 04:18:35;;;;;;;14.77;10.98;;;19.80;99.90;;;;;;5085108;28;20036;-77
2022/07/16 04:21:02;;;;;;;15.40;10.32;;;19.70;99.90;;;;;;5086389;28;20043;-76
2022/07/16 04:23:28;;;;;;;13.65;11.13;;;19.70;99.90;;;;;;5112174;28;20032;-77
2022/07/16 04:25:53;;;;;;;15.98;10.90;;;19.70;99.90;;;;;;5089525;28;20099;-77
2022/07/16 04:28:19;;;;;;;13.82;9.52;;;19.70;99.90;;;;;;5082344;28;20032;-77
2022/07/16 04:30:46;;;;;;;14.35;9.43;;;19.70;99.90;;;;;;5085364;28;20025;-77
2022/07/16 04:33:12;;;;;;;15.65;8.77;;;19.70;99.90;;;;;;5091237;28;20053;-76
2022/07/16 04:35:37;;;;;;;13.80;8.07;;;19.70;99.90;;;;;;5093337;28;20819;-77
2022/07/16 04:38:03;;;;;;;12.70;8.98;;;19.70;99.90;;;;;;5092511;28;20027;-77
2022/07/16 04:40:29;;;;;;;12.45;8.88;;;19.70;99.90;;;;;;5096574;28;20024;-77
2022/07/16 04:42:55;;;;;;;10.15;8.15;;;19.70;99.90;;;;;;5094889;28;20392;-76
2022/07/16 04:45:21;;;;;;;12.45;8.75;;;19.80;99.90;;;;;;5096965;28;20118;-76
2022/07/16 04:47:47;;;;;;;10.02;8.88;;;19.80;99.90;;;;;;5097251;28;20061;-77
2022/07/16 04:50:13;;;;;;;14.57;9.52;;;19.80;99.90;;;;;;5088931;28;20028;-77
2022/07/16 04:52:39;;;;;;;9.52;7.25;;;19.80;99.90;;;;;;5081135;28;20398;-76
2022/07/16 04:55:05;;;;;;;9.40;8.20;;;19.90;99.90;;;;;;5080924;28;20020;-76
2022/07/16 04:57:32;;;;;;;11.30;7.97;;;19.90;99.90;;;;;;5082520;28;20025;-77
2022/07/16 04:59:58;;;;;;;10.45;7.70;;;19.90;99.90;;;;;;5091388;28;20017;-77
2022/07/16 05:05:08;;;;;;;12.05;8.18;;;20.00;99.90;;;;;;5084505;28;20078;-77
2022/07/16 05:07:35;;;;;;;7.55;6.75;;;20.00;99.90;;;;;;5091315;28;20082;-76
2022/07/16 05:10:01;;;;;;;7.13;6.05;;;20.00;99.90;;;;;;5088702;28;20024;-77
2022/07/16 05:12:27;;;;;;;11.48;7.50;;;20.10;99.90;;;;;;5094535;28;20048;-77
2022/07/16 05:14:53;;;;;;;13.07;7.97;;;20.10;99.90;;;;;;5089493;28;20028;-77
2022/07/16 05:17:19;;;;;;;11.48;8.32;;;20.20;99.90;;;;;;5084356;28;20051;-77
2022/07/16 05:19:45;;;;;;;9.73;7.90;;;20.20;99.90;;;;;;5085003;28;20029;-77
2022/07/16 05:22:11;;;;;;;16.30;10.25;;;20.30;99.90;;;;;;5091455;28;20028;-77
2022/07/16 05:24:37;;;;;;;25.55;15.63;;;20.30;99.90;;;;;;5087157;28;20473;-77
2022/07/16 05:27:03;;;;;;;19.83;12.48;;;20.30;99.90;;;;;;5092700;28;20054;-77
2022/07/16 05:29:29;;;;;;;11.63;8.27;;;20.40;99.90;;;;;;5090856;28;20046;-77
2022/07/16 05:31:55;;;;;;;10.18;6.93;;;20.40;99.90;;;;;;5095903;28;20139;-77
2022/07/16 05:34:21;;;;;;;7.43;6.00;;;20.50;99.90;;;;;;5093612;28;20024;-77
2022/07/16 05:36:47;;;;;;;9.35;5.68;;;20.50;99.90;;;;;;5097391;28;20476;-77
2022/07/16 05:39:12;;;;;;;10.27;7.78;;;20.50;99.90;;;;;;5087319;28;20443;-77
2022/07/16 05:41:38;;;;;;;9.07;7.13;;;20.50;99.90;;;;;;5098671;28;20024;-77
2022/07/16 05:44:04;;;;;;;13.88;7.70;;;20.60;99.90;;;;;;5097580;28;20412;-77
2022/07/16 05:46:30;;;;;;;9.38;7.82;;;20.60;99.90;;;;;;5079294;28;20051;-77
2022/07/16 05:48:56;;;;;;;13.65;7.60;;;20.70;99.90;;;;;;5078540;28;20044;-77
2022/07/16 05:51:21;;;;;;;10.60;7.18;;;20.80;99.90;;;;;;5092447;28;20021;-77
2022/07/16 05:53:47;;;;;;;14.00;7.72;;;20.90;99.90;;;;;;5081247;28;20048;-77
2022/07/16 05:56:13;;;;;;;10.95;7.47;;;20.90;99.90;;;;;;5085225;28;20061;-77
2022/07/16 05:58:39;;;;;;;12.77;7.80;;;21.00;99.90;;;;;;5089397;28;20020;-78
2022/07/16 06:01:05;;;;;;;10.90;8.13;;;21.10;99.90;;;;;;5091180;28;20062;-77
2022/07/16 06:03:31;;;;;;;9.55;7.55;;;21.20;99.90;;;;;;5079355;28;20033;-78
2022/07/16 06:05:56;;;;;;;10.35;7.68;;;21.30;99.90;;;;;;5086031;28;20020;-78
2022/07/16 06:08:22;;;;;;;11.65;7.32;;;21.40;99.90;;;;;;5097815;28;20107;-78
2022/07/16 06:10:48;;;;;;;13.25;8.15;;;21.50;99.90;;;;;;5095085;28;20088;-79
2022/07/16 06:13:14;;;;;;;10.13;8.32;;;21.60;99.90;;;;;;5087912;28;20060;-78
2022/07/16 06:15:40;;;;;;;10.20;7.88;;;21.70;99.90;;;;;;5098234;28;20028;-78
2022/07/16 06:18:06;;;;;;;11.25;7.65;;;21.90;99.90;;;;;;5081688;28;20020;-78
2022/07/16 06:20:31;;;;;;;14.63;8.95;;;22.00;99.90;;;;;;5087663;28;20017;-79
2022/07/16 06:22:57;;;;;;;13.25;8.35;;;22.10;99.90;;;;;;5086296;28;20054;-79
2022/07/16 06:25:24;;;;;;;11.85;8.43;;;22.20;99.90;;;;;;5097084;28;20085;-78
2022/07/16 06:27:50;;;;;;;14.10;8.93;;;22.40;99.90;;;;;;5096718;28;20027;-79
2022/07/16 06:30:16;;;;;;;14.75;8.40;;;22.50;99.90;;;;;;5096383;28;20057;-79
2022/07/16 06:32:43;;;;;;;13.05;9.20;;;22.60;99.90;;;;;;5096581;28;20428;-79
2022/07/16 06:35:09;;;;;;;13.30;7.68;;;22.80;99.90;;;;;;5096471;28;20396;-79
2022/07/16 06:37:35;;;;;;;14.52;8.40;;;22.90;99.90;;;;;;5093299;28;20054;-79
2022/07/16 06:40:01;;;;;;;10.15;7.97;;;23.10;99.90;;;;;;5096407;28;20020;-79
2022/07/16 06:42:27;;;;;;;13.07;8.15;;;23.20;99.90;;;;;;5096997;28;20099;-79
2022/07/16 06:44:52;;;;;;;10.05;8.02;;;23.30;99.90;;;;;;5084306;28;20476;-79
2022/07/16 06:47:18;;;;;;;9.77;7.95;;;23.50;99.90;;;;;;5081910;28;20027;-79
2022/07/16 06:49:44;;;;;;;15.60;8.57;;;23.60;99.50;;;;;;5082719;28;20028;-78
2022/07/16 06:52:10;;;;;;;10.20;8.10;;;23.70;99.20;;;;;;5096150;28;20036;-77
2022/07/16 06:54:36;;;;;;;8.57;6.85;;;23.90;99.20;;;;;;5089926;28;20476;-78
2022/07/16 06:57:02;;;;;;;12.10;7.75;;;24.00;99.10;;;;;;5083959;28;20480;-77
2022/07/16 06:59:28;;;;;;;9.32;7.03;;;24.10;99.10;;;;;;5091688;28;20077;-79
2022/07/16 07:01:53;;;;;;;11.70;6.97;;;24.10;99.90;;;;;;5095155;28;20545;-79
2022/07/16 07:04:19;;;;;;;11.70;7.72;;;24.30;99.20;;;;;;5095949;28;20020;-78
2022/07/16 07:06:45;;;;;;;12.23;7.00;;;24.40;99.20;;;;;;5087197;28;20024;-78
2022/07/16 07:09:11;;;;;;;10.45;8.20;;;24.50;99.00;;;;;;5089081;28;20173;-80
2022/07/16 07:11:37;;;;;;;11.40;7.93;;;24.70;98.60;;;;;;5096960;28;20032;-77
2022/07/16 07:14:03;;;;;;;9.85;6.95;;;24.70;98.30;;;;;;5090976;28;20020;-78
2022/07/16 07:16:29;;;;;;;9.13;7.45;;;24.80;97.90;;;;;;5079821;28;20025;-77
2022/07/16 07:18:55;;;;;;;12.90;7.63;;;24.80;97.50;;;;;;5091813;28;20465;-78
2022/07/16 07:21:21;;;;;;;10.63;8.13;;;24.90;97.60;;;;;;5094905;28;20434;-79
2022/07/16 07:23:46;;;;;;;12.48;7.88;;;25.00;97.60;;;;;;5100429;28;20063;-80
2022/07/16 07:26:12;;;;;;;11.45;8.38;;;25.10;97.80;;;;;;5100278;28;20103;-80
2022/07/16 07:28:38;;;;;;;9.63;7.88;;;25.20;96.90;;;;;;5101731;28;20153;-79
2022/07/16 07:31:04;;;;;;;12.15;7.80;;;25.30;97.20;;;;;;5100696;28;20112;-78
2022/07/16 07:33:30;;;;;;;9.70;8.00;;;25.50;96.70;;;;;;5083212;28;20396;-80
2022/07/16 07:35:56;;;;;;;8.65;6.90;;;25.50;97.50;;;;;;5095715;28;20013;-79
2022/07/16 07:38:21;;;;;;;11.75;7.80;;;25.70;96.90;;;;;;5098925;28;20035;-80
2022/07/16 07:40:47;;;;;;;10.15;7.75;;;25.80;96.90;;;;;;5096579;28;20027;-80
2022/07/16 07:43:13;;;;;;;14.88;9.20;;;25.90;96.40;;;;;;5100565;28;20115;-79
2022/07/16 07:45:40;;;;;;;9.30;7.95;;;26.00;95.70;;;;;;5102410;28;20059;-79
2022/07/16 07:48:06;;;;;;;11.95;9.05;;;26.10;96.30;;;;;;5095934;28;20016;-80
2022/07/16 07:50:32;;;;;;;13.02;9.85;;;26.20;95.60;;;;;;5084322;28;20020;-79
2022/07/16 07:52:58;;;;;;;10.60;8.70;;;26.30;95.60;;;;;;5086082;28;20071;-80
2022/07/16 07:55:24;;;;;;;10.10;9.00;;;26.40;95.80;;;;;;5086163;28;20017;-80
2022/07/16 07:57:50;;;;;;;14.73;9.70;;;26.50;95.60;;;;;;5089418;28;20020;-80
2022/07/16 08:00:15;;;;;;;11.77;9.65;;;26.70;94.50;;;;;;5087889;28;20012;-80
2022/07/16 08:02:46;;;;;;;15.25;10.52;;;26.80;94.40;;;;;;5089459;28;20032;-79
2022/07/16 08:05:13;;;;;;;12.20;10.73;;;26.80;94.10;;;;;;5116738;27;20093;-80
2022/07/16 08:07:39;;;;;;;14.75;9.82;;;27.00;94.60;;;;;;5097650;28;20028;-80
2022/07/16 08:10:05;;;;;;;15.55;11.27;;;27.20;94.20;;;;;;5098844;28;20054;-79
2022/07/16 08:12:31;;;;;;;15.85;12.00;;;27.40;94.10;;;;;;5099332;28;20059;-79
2022/07/16 08:14:57;;;;;;;16.73;11.73;;;27.60;93.80;;;;;;5100271;28;20020;-80
2022/07/16 08:17:23;;;;;;;13.00;11.60;;;27.70;93.30;;;;;;5103030;28;20016;-80
2022/07/16 08:19:48;;;;;;;14.10;11.77;;;28.00;93.10;;;;;;5102220;28;20016;-79
2022/07/16 08:22:14;;;;;;;15.20;11.68;;;28.10;92.10;;;;;;5096559;28;20036;-80
2022/07/16 08:27:24;;;;;;;15.07;11.00;;;28.20;92.50;;;;;;5085097;28;20047;-80
2022/07/16 08:29:50;;;;;;;11.65;10.45;;;28.40;92.00;;;;;;5128821;27;20507;-79
2022/07/16 08:32:16;;;;;;;15.00;10.40;;;28.60;91.80;;;;;;5091079;28;20058;-80
2022/07/16 08:34:42;;;;;;;16.45;12.30;;;28.70;91.60;;;;;;5091539;28;20086;-80
2022/07/16 08:37:10;;;;;;;14.95;10.82;;;28.80;91.50;;;;;;5087239;28;20024;-80
2022/07/16 08:39:43;;;;;;;17.23;12.38;;;28.90;91.40;;;;;;5089248;28;20135;-80
2022/07/16 08:42:10;;;;;;;14.25;11.18;;;29.00;91.10;;;;;;5091064;28;20472;-80
2022/07/16 08:44:40;;;;;;;15.60;10.70;;;29.10;90.80;;;;;;5091535;28;20054;-81
2022/07/16 08:47:10;;;;;;;14.05;11.88;;;29.20;90.30;;;;;;5094178;28;20035;-78
2022/07/16 08:49:39;;;;;;;16.17;11.77;;;29.30;90.20;;;;;;5094778;28;20032;-80
2022/07/16 08:52:07;;;;;;;14.77;11.75;;;29.40;90.10;;;;;;5095210;28;20043;-79
2022/07/16 08:54:34;;;;;;;17.15;10.80;;;29.50;88.50;;;;;;5111805;28;20020;-78
2022/07/16 08:57:00;;;;;;;12.88;10.82;;;29.50;89.10;;;;;;5090184;28;20488;-79
2022/07/16 08:59:29;;;;;;;14.75;11.40;;;29.70;90.10;;;;;;5079727;28;20029;-79
2022/07/16 09:01:55;;;;;;;13.60;11.50;;;29.70;88.80;;;;;;5111920;28;20028;-78
2022/07/16 09:04:21;;;;;;;15.88;11.73;;;29.80;88.40;;;;;;5082086;28;20031;-79
2022/07/16 09:06:47;;;;;;;13.10;11.57;;;29.80;87.70;;;;;;5082152;28;20028;-79
2022/07/16 09:09:13;;;;;;;14.23;11.40;;;29.80;88.30;;;;;;5092835;28;20024;-79
2022/07/16 09:11:40;;;;;;;16.10;12.27;;;29.80;88.00;;;;;;5090718;28;20027;-78
2022/07/16 09:14:09;;;;;;;13.85;11.52;;;29.90;88.50;;;;;;5094097;28;20048;-79
2022/07/16 09:16:38;;;;;;;15.02;11.88;;;30.00;87.50;;;;;;5095141;28;20031;-78
2022/07/16 09:19:10;;;;;;;14.20;11.63;;;30.20;86.50;;;;;;5098438;28;20028;-79
2022/07/16 09:22:00;;;;;;;14.00;10.40;;;30.20;85.90;;;;;;5098882;28;20028;-78
2022/07/16 09:24:35;;;;;;;11.40;9.33;;;30.30;85.00;;;;;;5113221;28;20500;-78
2022/07/16 09:27:02;;;;;;;12.98;9.90;;;30.40;81.10;;;;;;5081829;28;20293;-80
2022/07/16 09:29:28;;;;;;;16.17;9.93;;;30.50;81.00;;;;;;5081812;28;20024;-78
2022/07/16 09:31:54;;;;;;;13.02;8.68;;;30.30;78.70;;;;;;5086655;28;20369;-78
2022/07/16 09:34:21;;;;;;;13.07;9.35;;;30.30;77.70;;;;;;5084266;28;20067;-77
2022/07/16 09:36:59;;;;;;;11.50;8.88;;;30.30;77.70;;;;;;5089387;28;20046;-79
2022/07/16 09:39:25;;;;;;;10.02;7.90;;;30.20;77.90;;;;;;5090868;28;20094;-78
2022/07/16 09:41:51;;;;;;;12.48;8.38;;;30.20;77.40;;;;;;5093208;28;20028;-78
2022/07/16 09:44:25;;;;;;;12.32;8.48;;;30.30;79.40;;;;;;5088674;28;20024;-79
2022/07/16 09:47:06;;;;;;;11.25;8.00;;;30.50;80.40;;;;;;5093654;28;20111;-78
2022/07/16 09:49:37;;;;;;;9.15;6.38;;;30.80;78.10;;;;;;5094755;28;20020;-79
2022/07/16 09:52:07;;;;;;;6.47;4.82;;;30.90;77.50;;;;;;5094975;28;20078;-79
2022/07/16 09:54:37;;;;;;;6.72;5.20;;;31.00;71.70;;;;;;5097400;28;20024;-79
2022/07/16 09:57:15;;;;;;;5.03;4.05;;;31.10;70.10;;;;;;5085415;28;20073;-79
2022/07/16 09:59:42;;;;;;;7.05;4.05;;;31.30;64.00;;;;;;5079828;28;20099;-79
2022/07/16 10:02:08;;;;;;;7.70;4.68;;;31.40;64.20;;;;;;5082484;28;20534;-80
2022/07/16 10:04:34;;;;;;;5.35;4.18;;;31.50;64.20;;;;;;5082575;28;20021;-78
2022/07/16 10:07:00;;;;;;;7.22;4.75;;;31.50;61.50;;;;;;5084052;28;20043;-79
2022/07/16 10:09:27;;;;;;;6.75;5.53;;;31.60;62.10;;;;;;5090261;28;20031;-80
2022/07/16 10:11:55;;;;;;;9.27;5.65;;;31.70;63.00;;;;;;5096883;28;20028;-78
2022/07/16 10:14:22;;;;;;;6.90;5.32;;;31.70;64.30;;;;;;5093123;28;20511;-80
2022/07/16 10:16:48;;;;;;;9.20;4.97;;;31.80;65.40;;;;;;5096669;28;20511;-78
2022/07/16 10:19:15;;;;;;;7.30;5.25;;;31.70;60.10;;;;;;5095482;28;20012;-80
2022/07/16 10:22:01;;;;;;;8.35;5.72;;;31.80;62.20;;;;;;5085811;28;20035;-78
2022/07/16 10:24:50;;;;;;;7.57;5.47;;;31.70;59.20;;;;;;5088841;28;20024;-82
2022/07/16 10:27:17;;;;;;;7.97;6.25;;;31.70;58.50;;;;;;5088517;28;20028;-78
2022/07/16 10:29:43;;;;;;;7.43;6.03;;;31.60;59.00;;;;;;5089746;28;20016;-78
2022/07/16 10:32:30;;;;;;;11.45;7.38;;;31.60;59.70;;;;;;5095536;28;20050;-80
2022/07/16 10:34:59;;;;;;;11.45;7.97;;;31.70;63.00;;;;;;5094753;28;20374;-80
2022/07/16 10:37:30;;;;;;;10.88;8.52;;;31.70;62.20;;;;;;5096135;28;20051;-80
2022/07/16 10:40:02;;;;;;;7.95;7.15;;;31.70;62.10;;;;;;5080118;28;20021;-79
2022/07/16 10:42:28;;;;;;;14.65;7.88;;;31.90;63.50;;;;;;5078084;28;20035;-82
2022/07/16 10:44:54;;;;;;;11.77;7.88;;;32.00;64.00;;;;;;5093977;28;20028;-82
2022/07/16 10:47:20;;;;;;;11.02;7.82;;;32.20;64.20;;;;;;5081897;28;20020;-82
2022/07/16 10:49:46;;;;;;;9.07;7.57;;;32.30;64.40;;;;;;5088219;28;20026;-81
2022/07/16 10:52:14;;;;;;;14.00;8.02;;;32.40;64.30;;;;;;5083191;28;20044;-84
2022/07/16 10:54:52;;;;;;;12.32;8.00;;;32.50;62.60;;;;;;5083571;28;20024;-80
2022/07/16 10:57:31;;;;;;;10.85;7.53;;;32.40;59.20;;;;;;5087304;28;20068;-81
2022/07/16 10:59:59;;;;;;;9.57;7.82;;;32.40;60.90;;;;;;5090573;28;20421;-81
2022/07/16 11:02:25;;;;;;;9.10;7.03;;;32.60;59.20;;;;;;5095216;28;20032;-80
2022/07/16 11:04:53;;;;;;;9.13;6.70;;;32.60;57.70;;;;;;5095552;28;20028;-82
2022/07/16 11:07:21;;;;;;;8.30;6.88;;;32.60;58.40;;;;;;5085855;28;20485;-81
2022/07/16 11:09:51;;;;;;;8.15;7.20;;;32.70;59.70;;;;;;5090481;28;20473;-81
2022/07/16 11:12:19;;;;;;;12.43;7.53;;;32.80;60.70;;;;;;5094659;28;20081;-83
2022/07/16 11:14:49;;;;;;;10.07;7.00;;;32.90;58.00;;;;;;5084094;28;20115;-82
2022/07/16 11:17:17;;;;;;;9.03;7.33;;;33.00;56.90;;;;;;5083154;28;20020;-81
2022/07/16 11:19:49;;;;;;;9.13;8.15;;;33.00;56.60;;;;;;5085228;28;20048;-82
2022/07/16 11:22:20;;;;;;;11.45;6.72;;;33.00;56.30;;;;;;5080385;28;20059;-82
2022/07/16 11:24:52;;;;;;;9.93;6.65;;;33.10;55.70;;;;;;5082572;28;20028;-83
2022/07/16 11:27:24;;;;;;;7.43;6.30;;;33.20;57.00;;;;;;5084685;28;20028;-83
2022/07/16 11:29:56;;;;;;;7.55;6.10;;;33.40;56.00;;;;;;5086492;28;20024;-82
2022/07/16 11:32:22;;;;;;;10.85;5.53;;;33.60;57.30;;;;;;5088079;28;20024;-81
2022/07/16 11:34:48;;;;;;;8.65;6.20;;;33.70;53.00;;;;;;5092522;28;20035;-83
2022/07/16 11:37:14;;;;;;;10.93;6.10;;;33.70;51.70;;;;;;5128452;28;20043;-81
2022/07/16 11:39:40;;;;;;;9.07;6.05;;;33.70;53.10;;;;;;5096894;28;20365;-83
2022/07/16 11:42:06;;;;;;;7.68;5.60;;;33.80;49.50;;;;;;5097031;28;20198;-82
2022/07/16 11:44:34;;;;;;;7.00;5.22;;;33.70;50.40;;;;;;5096864;28;20028;-81
2022/07/16 11:47:06;;;;;;;7.93;5.28;;;33.80;53.10;;;;;;5087101;28;20020;-82
2022/07/16 11:49:35;;;;;;;7.40;5.30;;;33.80;53.20;;;;;;5088966;28;20028;-83
2022/07/16 11:52:21;;;;;;;9.63;5.03;;;33.90;52.90;;;;;;5091514;28;20068;-81
2022/07/16 11:54:47;;;;;;;8.82;5.97;;;33.90;51.40;;;;;;5093889;28;20020;-83
2022/07/16 11:57:13;;;;;;;7.32;4.63;;;33.90;50.00;;;;;;5091691;28;20024;-81
2022/07/16 11:59:48;;;;;;;7.15;4.25;;;33.90;49.90;;;;;;5095557;28;20020;-80
2022/07/16 12:02:18;;;;;;;4.70;2.90;;;33.90;50.10;;;;;;5093712;28;20034;-82
2022/07/16 12:04:52;;;;;;;3.95;3.00;;;33.90;48.20;;;;;;5077241;28;20028;-80
2022/07/16 12:07:31;;;;;;;5.80;3.33;;;34.00;48.10;;;;;;5081758;28;20115;-80
2022/07/16 12:09:59;;;;;;;4.78;3.63;;;34.10;47.80;;;;;;5091619;28;20031;-82
2022/07/16 12:12:28;;;;;;;6.00;4.10;;;34.20;49.90;;;;;;5088501;28;20380;-80
2022/07/16 12:15:02;;;;;;;9.38;4.20;;;34.20;49.00;;;;;;5085066;28;20031;-82
2022/07/16 12:17:33;;;;;;;5.28;3.90;;;34.40;49.20;;;;;;5086293;28;20027;-80
2022/07/16 12:20:13;;;;;;;3.80;2.72;;;34.50;50.50;;;;;;5089034;28;20100;-83
2022/07/16 12:22:58;;;;;;;3.67;2.67;;;34.50;47.10;;;;;;5097622;28;20028;-83
2022/07/16 12:25:35;;;;;;;5.00;1.75;;;34.60;48.70;;;;;;5095446;28;20078;-83
2022/07/16 12:28:10;;;;;;;2.85;1.95;;;34.80;44.00;;;;;;5086956;28;20078;-80
2022/07/16 12:30:52;;;;;;;3.08;1.95;;;34.90;44.10;;;;;;5100003;28;20031;-82
2022/07/16 12:33:27;;;;;;;4.65;2.08;;;34.90;46.70;;;;;;5094333;28;20377;-82
2022/07/16 12:35:55;;;;;;;3.95;1.70;;;35.00;45.00;;;;;;5093444;28;20030;-84
2022/07/16 12:38:45;;;;;;;6.72;1.60;;;35.00;44.70;;;;;;5098887;28;20026;-82
2022/07/16 12:41:14;;;;;;;6.13;2.27;;;35.00;44.80;;;;;;5098438;28;20463;-83
2022/07/16 12:43:44;;;;;;;4.70;1.90;;;35.10;44.50;;;;;;5100206;28;20277;-80
2022/07/16 12:46:11;;;;;;;4.35;1.73;;;35.20;44.70;;;;;;5084821;28;20418;-81
2022/07/16 12:48:46;;;;;;;2.60;1.90;;;35.30;44.20;;;;;;5098363;28;20087;-82